Accueil
METAR-TAF:

METAR-TAF

Aéroports :

Burlington-Alamance Regional Airport

Burlington, Caroline du Nord, États-Unis

latitude: 36-02-52N, longitude: 079-28-26W, altitude: 188 m

Observation

Le bulletin a été fait il y a 52 minutes, à 21:54 UTC
Vent 11 kt de nord-ouest avec des rafales jusqu'à 18 kt
Température 14°C
Humidité 38%
Pression 1021 hPa
Visibilité: 16.1 km
Ciel clair

METAR: KBUY 202154Z AUTO 31011G18KT 10SM CLR 14/00 A3014 RMK AO2 SLP207 T01390000

Heure: 17:46 (22:46 UTC)


TAF: absent

Observations et prévisions météorologiques de plus de 4000 aéroports (messages METAR et TAF).

Les stations disponibles sont représentées par des disques jaunes et rouges sur la carte.

Passer la souris dessus pour voir le nom de la station.

Cliquer dessus pour voir les observations et prévisions météorologiques.

Pour changer de carte: cliquez sur les boutons verts avec une croix noire pour zoomer, sur le bouton vert avec un tiret pour effectuer un zoom arrière, ou sur les flèches vertes pour les cartes adjacentes.


METAR-TAF: